createdAt,value
2023-02-05T00:01:59.734Z,2.00
2023-02-05T00:04:28.275Z,2.30
2023-02-05T00:06:56.774Z,2.63
2023-02-05T00:09:25.653Z,2.70
2023-02-05T00:11:55.596Z,2.80
2023-02-05T00:14:24.948Z,2.65
2023-02-05T00:16:54.684Z,2.70
2023-02-05T00:19:23.643Z,3.13
2023-02-05T00:21:52.579Z,3.45
2023-02-05T00:24:21.216Z,3.30
2023-02-05T00:26:49.811Z,3.70
2023-02-05T00:29:19.655Z,4.18
2023-02-05T00:31:49.505Z,3.33
2023-02-05T00:34:18.782Z,3.58
2023-02-05T00:36:48.616Z,3.60
2023-02-05T00:39:17.217Z,3.53
2023-02-05T00:41:49.161Z,3.45
2023-02-05T00:44:19.421Z,3.58
2023-02-05T00:46:47.959Z,3.33
2023-02-05T00:49:16.759Z,3.70
2023-02-05T00:51:45.669Z,3.85
2023-02-05T00:54:14.736Z,2.80
2023-02-05T00:56:43.348Z,3.17
2023-02-05T00:59:12.326Z,3.03
2023-02-05T01:01:42.302Z,3.60
2023-02-05T01:04:10.959Z,3.28
2023-02-05T01:09:25.468Z,2.53
2023-02-05T01:12:02.080Z,3.00
2023-02-05T01:14:36.741Z,3.00
2023-02-05T01:17:06.817Z,3.17
2023-02-05T01:19:35.878Z,3.20
2023-02-05T01:22:04.926Z,2.58
2023-02-05T01:24:33.497Z,3.03
2023-02-05T01:27:02.019Z,2.92
2023-02-05T01:29:30.890Z,3.25
2023-02-05T01:31:59.584Z,3.47
2023-02-05T01:34:29.405Z,3.17
2023-02-05T01:36:58.527Z,3.50
2023-02-05T01:39:27.059Z,3.03
2023-02-05T01:41:55.759Z,3.10
2023-02-05T01:44:25.517Z,3.25
2023-02-05T01:46:55.689Z,2.90
2023-02-05T01:49:29.168Z,2.72
2023-02-05T01:52:04.484Z,3.03
2023-02-05T01:54:38.268Z,2.72
2023-02-05T01:57:12.735Z,3.40
2023-02-05T01:59:42.691Z,3.10
2023-02-05T02:02:11.587Z,3.25
2023-02-05T02:04:43.748Z,3.38
2023-02-05T02:07:16.613Z,3.17
2023-02-05T02:09:47.857Z,3.03
2023-02-05T02:12:20.403Z,2.88
2023-02-05T02:14:53.690Z,3.03
2023-02-05T02:17:23.146Z,2.50
2023-02-05T02:20:00.510Z,2.60
2023-02-05T02:22:58.574Z,3.38
2023-02-05T02:25:53.676Z,3.17
2023-02-05T02:28:28.502Z,3.22
2023-02-05T02:31:03.823Z,3.42
2023-02-05T02:33:37.475Z,2.72
2023-02-05T02:36:11.107Z,2.90
2023-02-05T02:38:45.329Z,3.22
2023-02-05T02:41:19.588Z,3.45
2023-02-05T02:43:54.710Z,3.85
2023-02-05T02:46:26.813Z,3.40
2023-02-05T02:49:45.299Z,3.25
2023-02-05T02:52:18.047Z,2.88
2023-02-05T02:54:49.825Z,2.83
2023-02-05T02:57:22.185Z,2.67
2023-02-05T02:59:56.398Z,2.53
2023-02-05T03:02:31.873Z,3.15
2023-02-05T03:05:06.171Z,2.70
2023-02-05T03:07:39.610Z,3.08
2023-02-05T03:10:12.990Z,3.70
2023-02-05T03:12:42.191Z,3.95
2023-02-05T03:15:12.824Z,3.53
2023-02-05T03:17:43.284Z,3.85
2023-02-05T03:20:28.829Z,3.60
2023-02-05T03:22:58.332Z,3.70
2023-02-05T03:25:30.350Z,3.30
2023-02-05T03:28:01.354Z,3.65
2023-02-05T03:30:41.950Z,3.80
2023-02-05T03:33:26.714Z,3.85
2023-02-05T03:36:05.487Z,4.07
2023-02-05T03:38:47.501Z,3.72
2023-02-05T03:41:22.019Z,4.13
2023-02-05T03:44:00.107Z,4.05
2023-02-05T03:46:35.928Z,4.43
2023-02-05T03:49:12.570Z,4.28
2023-02-05T03:51:48.592Z,4.45
2023-02-05T03:54:24.521Z,4.50
2023-02-05T03:56:59.739Z,4.75
2023-02-05T03:59:30.420Z,3.47
2023-02-05T04:02:04.769Z,3.03
2023-02-05T04:04:42.834Z,2.88
2023-02-05T04:07:11.862Z,3.22
2023-02-05T04:09:41.921Z,2.95
2023-02-05T04:12:11.201Z,3.10
2023-02-05T04:14:41.238Z,3.10
2023-02-05T04:17:15.455Z,3.53
2023-02-05T04:19:44.413Z,3.60
2023-02-05T04:22:15.402Z,3.40
2023-02-05T04:24:47.186Z,3.65
2023-02-05T04:27:16.524Z,3.20
2023-02-05T04:29:45.189Z,3.80
2023-02-05T04:32:15.141Z,3.70
2023-02-05T04:34:43.685Z,4.47
2023-02-05T04:37:14.166Z,4.30
2023-02-05T04:39:42.427Z,4.22
2023-02-05T04:42:10.916Z,4.38
2023-02-05T04:44:39.411Z,4.25
2023-02-05T04:47:07.879Z,4.22
2023-02-05T04:49:37.917Z,4.88
2023-02-05T04:52:06.757Z,4.90
2023-02-05T04:54:35.982Z,4.32
2023-02-05T04:57:04.746Z,5.65
2023-02-05T04:59:33.202Z,5.40
2023-02-05T05:02:01.873Z,5.45
2023-02-05T05:04:30.297Z,5.18
2023-02-05T05:07:00.150Z,5.85
2023-02-05T05:09:28.863Z,5.35
2023-02-05T05:12:03.176Z,5.13
2023-02-05T05:14:31.912Z,5.05
2023-02-05T05:17:00.404Z,4.57
2023-02-05T05:19:28.737Z,3.80
2023-02-05T05:21:57.200Z,3.50
2023-02-05T05:24:26.949Z,3.55
2023-02-05T05:26:55.459Z,3.85
2023-02-05T05:29:24.033Z,4.00
2023-02-05T05:31:53.858Z,3.50
2023-02-05T05:34:22.446Z,3.20
2023-02-05T05:36:50.902Z,3.47
2023-02-05T05:39:37.023Z,3.75
2023-02-05T05:42:25.039Z,3.75
2023-02-05T05:44:53.398Z,4.03
2023-02-05T05:47:22.172Z,4.53
2023-02-05T05:49:50.548Z,4.40
2023-02-05T05:52:18.934Z,4.15
2023-02-05T05:54:47.216Z,4.57
2023-02-05T05:57:16.984Z,4.72
2023-02-05T05:59:45.268Z,4.70
2023-02-05T06:02:13.599Z,4.93
2023-02-05T06:04:41.872Z,4.47
2023-02-05T06:07:10.236Z,5.30
2023-02-05T06:09:38.660Z,5.10
2023-02-05T06:12:07.438Z,5.07
2023-02-05T06:14:37.103Z,4.72
2023-02-05T06:17:05.450Z,4.75
2023-02-05T06:19:33.774Z,5.47
2023-02-05T06:22:02.115Z,5.30
2023-02-05T06:24:31.072Z,4.80
2023-02-05T06:26:59.470Z,5.03
2023-02-05T06:29:27.867Z,5.72
2023-02-05T06:31:57.722Z,6.80
2023-02-05T06:34:26.161Z,5.60
2023-02-05T06:36:54.760Z,5.82
2023-02-05T06:39:25.192Z,5.70
2023-02-05T06:41:53.921Z,6.07
2023-02-05T06:44:24.238Z,5.30
2023-02-05T06:46:52.830Z,5.38
2023-02-05T06:49:22.578Z,6.18
2023-02-05T06:51:51.135Z,5.32
2023-02-05T06:54:19.483Z,6.10
2023-02-05T06:56:48.693Z,6.93
2023-02-05T06:59:17.149Z,7.18
2023-02-05T07:01:45.799Z,7.18
2023-02-05T07:04:14.367Z,6.72
2023-02-05T07:06:44.250Z,7.53
2023-02-05T07:09:12.788Z,7.20
2023-02-05T07:11:41.248Z,7.53
2023-02-05T07:14:09.627Z,7.32
2023-02-05T07:16:38.047Z,7.40
2023-02-05T07:19:06.357Z,7.47
2023-02-05T07:21:35.287Z,7.15
2023-02-05T07:24:05.292Z,6.85
2023-02-05T07:26:33.934Z,7.03
2023-02-05T07:29:02.490Z,7.32
2023-02-05T07:31:31.203Z,7.10
2023-02-05T07:33:59.641Z,7.28
2023-02-05T07:36:28.062Z,7.03
2023-02-05T07:38:56.539Z,7.07
2023-02-05T07:41:26.793Z,6.60
2023-02-05T07:43:55.743Z,6.78
2023-02-05T07:46:24.523Z,6.55
2023-02-05T07:48:53.025Z,6.78
2023-02-05T07:51:23.135Z,7.35
2023-02-05T07:53:52.260Z,7.45
2023-02-05T07:56:21.676Z,8.07
2023-02-05T07:58:51.509Z,8.95
2023-02-05T08:01:20.056Z,8.80
2023-02-05T08:03:48.850Z,8.07
2023-02-05T08:06:17.447Z,8.30
2023-02-05T08:08:46.048Z,7.85
2023-02-05T08:11:16.594Z,8.02
2023-02-05T08:18:04.516Z,8.73
2023-02-05T08:20:33.195Z,9.95
2023-02-05T08:23:04.953Z,8.93
2023-02-05T08:25:33.809Z,9.10
2023-02-05T08:28:02.599Z,9.35
2023-02-05T08:30:31.200Z,8.82
2023-02-05T08:32:59.631Z,9.50
2023-02-05T08:35:29.661Z,10.02
2023-02-05T08:37:58.591Z,9.32
2023-02-05T08:40:26.930Z,9.40
2023-02-05T08:42:57.593Z,9.95
2023-02-05T08:45:26.077Z,10.02
2023-02-05T08:47:55.029Z,10.50
2023-02-05T08:50:23.967Z,11.07
2023-02-05T08:52:53.717Z,10.98
2023-02-05T08:55:22.058Z,10.65
2023-02-05T08:57:50.293Z,10.90
2023-02-05T09:00:19.678Z,11.38
2023-02-05T09:02:48.121Z,11.45
2023-02-05T09:05:16.381Z,11.02
2023-02-05T09:07:44.615Z,11.60
2023-02-05T09:10:14.809Z,11.65
2023-02-05T09:12:43.129Z,11.60
2023-02-05T09:15:11.789Z,10.95
2023-02-05T09:17:40.038Z,11.95
2023-02-05T09:20:08.903Z,11.57
2023-02-05T09:22:37.871Z,11.98
2023-02-05T09:25:06.885Z,11.98
2023-02-05T09:27:36.779Z,12.73
2023-02-05T09:30:05.577Z,11.25
2023-02-05T09:32:33.818Z,11.10
2023-02-05T09:35:02.118Z,12.10
2023-02-05T09:37:30.599Z,12.32
2023-02-05T09:42:58.052Z,11.75
2023-02-05T09:45:38.665Z,11.98
2023-02-05T09:48:24.274Z,11.80
2023-02-05T09:50:53.155Z,11.35
2023-02-05T09:53:23.634Z,10.60
2023-02-05T09:55:52.333Z,11.07
2023-02-05T09:58:25.709Z,10.68
2023-02-05T10:00:59.350Z,10.32
2023-02-05T10:03:32.367Z,10.90
2023-02-05T10:06:13.415Z,9.57
2023-02-05T10:08:48.992Z,10.80
2023-02-05T10:11:27.126Z,10.60
2023-02-05T10:14:06.050Z,9.93
2023-02-05T10:16:54.999Z,10.45
2023-02-05T10:19:52.561Z,10.02
2023-02-05T10:22:28.458Z,9.73
2023-02-05T10:25:27.295Z,10.27
2023-02-05T10:28:05.887Z,9.23
2023-02-05T10:30:41.975Z,9.32
2023-02-05T10:33:17.682Z,9.55
2023-02-05T10:35:57.395Z,9.73
2023-02-05T10:38:28.321Z,9.77
2023-02-05T10:41:00.611Z,8.82
2023-02-05T10:43:36.806Z,10.07
2023-02-05T10:46:12.100Z,10.10
2023-02-05T10:48:44.942Z,9.38
2023-02-05T10:51:16.866Z,9.80
2023-02-05T10:53:46.499Z,9.32
2023-02-05T10:56:18.848Z,9.95
2023-02-05T10:58:54.011Z,10.57
2023-02-05T11:01:25.996Z,11.35
2023-02-05T11:03:59.010Z,10.27
2023-02-05T11:06:32.415Z,11.32
2023-02-05T11:09:00.966Z,11.68
2023-02-05T11:11:32.146Z,11.40
2023-02-05T11:14:02.373Z,11.35
2023-02-05T11:16:42.021Z,12.35
2023-02-05T11:19:21.133Z,12.48
2023-02-05T11:21:54.710Z,12.75
2023-02-05T11:24:27.197Z,12.35
2023-02-05T11:27:25.702Z,12.15
2023-02-05T11:29:54.310Z,11.90
2023-02-05T11:32:33.582Z,11.95
2023-02-05T11:35:19.777Z,12.38
2023-02-05T11:37:51.478Z,12.05
2023-02-05T11:40:24.802Z,12.45
2023-02-05T11:43:01.586Z,12.02
2023-02-05T11:45:31.369Z,11.48
2023-02-05T11:48:04.240Z,11.73
2023-02-05T11:50:34.346Z,11.88
2023-02-05T11:53:19.579Z,12.05
2023-02-05T11:55:54.871Z,12.25
2023-02-05T11:58:36.058Z,11.38
2023-02-05T12:01:07.448Z,11.93
2023-02-05T12:03:37.133Z,12.25
2023-02-05T12:06:17.880Z,11.77
2023-02-05T12:08:50.157Z,11.95
2023-02-05T12:11:55.149Z,12.20
2023-02-05T12:14:29.906Z,12.75
2023-02-05T12:17:04.319Z,11.70
2023-02-05T12:19:51.617Z,11.63
2023-02-05T12:22:29.044Z,10.85
2023-02-05T12:25:07.720Z,12.10
2023-02-05T12:27:49.388Z,11.95
2023-02-05T12:30:30.810Z,11.70
2023-02-05T12:33:15.331Z,11.57
2023-02-05T12:35:59.208Z,12.50
2023-02-05T12:38:38.063Z,12.18
2023-02-05T12:41:19.427Z,12.10
2023-02-05T12:43:49.858Z,10.57
2023-02-05T12:46:35.821Z,9.07
2023-02-05T12:49:25.031Z,9.32
2023-02-05T12:52:07.799Z,9.02
2023-02-05T12:55:00.200Z,8.68
2023-02-05T12:57:38.377Z,8.20
2023-02-05T13:00:13.158Z,8.60
2023-02-05T13:02:50.705Z,8.98
2023-02-05T13:05:22.870Z,8.90
2023-02-05T13:08:00.326Z,10.63
2023-02-05T13:10:32.067Z,10.52
2023-02-05T13:13:05.931Z,10.45
2023-02-05T13:15:40.727Z,10.45
2023-02-05T13:18:20.043Z,9.85
2023-02-05T13:21:22.202Z,10.45
2023-02-05T13:24:12.355Z,9.63
2023-02-05T13:27:01.016Z,9.70
2023-02-05T13:29:33.014Z,8.68
2023-02-05T13:32:15.208Z,8.05
2023-02-05T13:34:44.786Z,8.10
2023-02-05T13:37:50.047Z,8.35
2023-02-05T13:40:42.140Z,8.30
2023-02-05T13:43:34.844Z,8.38
2023-02-05T13:46:24.654Z,9.93
2023-02-05T13:49:25.513Z,8.93
2023-02-05T13:52:10.863Z,9.60
2023-02-05T13:55:15.592Z,9.63
2023-02-05T13:58:09.474Z,8.35
2023-02-05T14:00:40.189Z,9.80
2023-02-05T14:03:10.119Z,8.63
2023-02-05T14:05:42.249Z,8.32
2023-02-05T14:08:22.514Z,8.20
2023-02-05T14:11:00.095Z,9.43
2023-02-05T14:13:33.610Z,9.55
2023-02-05T14:16:34.798Z,9.60
2023-02-05T14:19:17.546Z,7.95
2023-02-05T14:22:12.646Z,8.57
2023-02-05T14:24:51.258Z,8.18
2023-02-05T14:27:37.136Z,8.32
2023-02-05T14:30:51.250Z,8.40
2023-02-05T14:33:38.226Z,9.02
2023-02-05T14:36:34.311Z,9.10
2023-02-05T14:39:05.847Z,10.30
2023-02-05T14:41:50.612Z,8.82
2023-02-05T14:44:22.857Z,9.52
2023-02-05T14:47:02.980Z,9.38
2023-02-05T14:49:40.182Z,9.35
2023-02-05T14:52:24.092Z,9.98
2023-02-05T14:54:59.446Z,6.90
2023-02-05T14:57:34.645Z,6.93
2023-02-05T15:00:06.006Z,7.05
2023-02-05T15:03:15.369Z,8.68
2023-02-05T15:05:52.185Z,7.88
2023-02-05T15:08:25.428Z,9.02
2023-02-05T15:10:59.508Z,7.45
2023-02-05T15:13:27.904Z,8.05
2023-02-05T15:16:19.920Z,8.80
2023-02-05T15:18:51.468Z,9.63
2023-02-05T15:21:26.445Z,12.13
2023-02-05T15:24:01.580Z,11.52
2023-02-05T15:26:37.497Z,10.25
2023-02-05T15:29:13.366Z,9.90
2023-02-05T15:31:47.068Z,9.80
2023-02-05T15:34:28.871Z,11.13
2023-02-05T15:37:05.577Z,10.18
2023-02-05T15:39:42.946Z,9.75
2023-02-05T15:42:16.734Z,12.00
2023-02-05T15:44:45.027Z,11.70
2023-02-05T15:47:20.398Z,10.48
2023-02-05T15:49:52.638Z,11.07
2023-02-05T15:52:25.567Z,10.63
2023-02-05T15:54:56.943Z,10.93
2023-02-05T15:57:28.276Z,11.65
2023-02-05T15:59:58.345Z,12.13
2023-02-05T16:02:28.685Z,10.90
2023-02-05T16:04:59.189Z,9.65
2023-02-05T16:07:30.618Z,9.00
2023-02-05T16:10:00.628Z,9.43
2023-02-05T16:12:30.448Z,10.10
2023-02-05T16:15:00.278Z,10.00
2023-02-05T16:17:32.960Z,10.15
2023-02-05T16:20:13.281Z,9.73
2023-02-05T16:22:47.583Z,8.80
2023-02-05T16:25:29.834Z,9.38
2023-02-05T16:28:00.809Z,9.90
2023-02-05T16:30:34.994Z,11.10
2023-02-05T16:33:05.616Z,9.93
2023-02-05T16:35:37.268Z,9.75
2023-02-05T16:38:09.582Z,8.63
2023-02-05T16:40:39.938Z,10.23
2023-02-05T16:43:27.894Z,9.60
2023-02-05T16:46:25.815Z,9.60
2023-02-05T16:48:56.854Z,8.32
2023-02-05T16:51:36.410Z,9.27
2023-02-05T16:54:28.851Z,9.00
2023-02-05T16:57:01.974Z,9.10
2023-02-05T16:59:34.730Z,8.88
2023-02-05T17:02:04.291Z,9.85
2023-02-05T17:04:37.004Z,8.73
2023-02-05T17:07:17.558Z,8.95
2023-02-05T17:09:47.556Z,11.00
2023-02-05T17:12:39.270Z,10.45
2023-02-05T17:15:27.121Z,10.07
2023-02-05T17:17:57.593Z,10.80
2023-02-05T17:20:28.001Z,10.55
2023-02-05T17:23:12.168Z,11.15
2023-02-05T17:25:44.516Z,10.95
2023-02-05T17:28:17.586Z,10.75
2023-02-05T17:30:48.057Z,11.80
2023-02-05T17:33:19.114Z,12.07
2023-02-05T17:35:47.608Z,12.40
2023-02-05T17:38:16.131Z,12.30
2023-02-05T17:40:46.015Z,14.23
2023-02-05T17:43:14.625Z,58.08
2023-02-05T17:45:44.163Z,42.75
2023-02-05T17:48:12.873Z,16.27
2023-02-05T17:50:41.162Z,22.55
2023-02-05T17:53:13.925Z,16.45
2023-02-05T17:55:42.319Z,14.63
2023-02-05T17:58:11.790Z,17.27
2023-02-05T18:00:40.212Z,12.20
2023-02-05T18:03:08.394Z,11.82
2023-02-05T18:05:36.725Z,10.57
2023-02-05T18:08:06.306Z,11.05
2023-02-05T18:10:36.214Z,11.25
2023-02-05T18:13:04.654Z,11.52
2023-02-05T18:15:34.574Z,11.02
2023-02-05T18:18:02.768Z,10.50
2023-02-05T18:20:31.095Z,11.77
2023-02-05T18:22:59.282Z,12.27
2023-02-05T18:25:27.690Z,11.63
2023-02-05T18:27:56.652Z,12.82
2023-02-05T18:30:25.110Z,12.20
2023-02-05T18:32:54.655Z,10.05
2023-02-05T18:35:22.975Z,10.55
2023-02-05T18:37:51.157Z,11.68
2023-02-05T18:40:19.657Z,10.82
2023-02-05T18:42:48.775Z,10.88
2023-02-05T18:45:17.366Z,10.13
2023-02-05T18:47:45.696Z,10.52
2023-02-05T18:50:16.185Z,10.13
2023-02-05T18:52:44.726Z,9.88
2023-02-05T18:55:13.461Z,10.57
2023-02-05T18:57:42.081Z,9.77
2023-02-05T19:00:11.261Z,10.85
2023-02-05T19:02:41.609Z,11.55
2023-02-05T19:05:11.311Z,12.65
2023-02-05T19:07:41.178Z,11.25
2023-02-05T19:10:09.429Z,13.13
2023-02-05T19:12:38.060Z,12.45
2023-02-05T19:15:06.930Z,12.73
2023-02-05T19:17:35.434Z,11.90
2023-02-05T19:20:03.631Z,11.63
2023-02-05T19:22:32.093Z,10.77
2023-02-05T19:25:01.519Z,11.63
2023-02-05T19:27:29.804Z,11.88
2023-02-05T19:29:57.991Z,12.32
2023-02-05T19:32:26.395Z,13.23
2023-02-05T19:34:54.861Z,11.82
2023-02-05T19:37:23.392Z,12.30
2023-02-05T19:39:51.745Z,11.77
2023-02-05T19:42:21.668Z,11.13
2023-02-05T19:44:49.828Z,11.73
2023-02-05T19:47:18.227Z,10.65
2023-02-05T19:49:46.432Z,11.50
2023-02-05T19:52:14.909Z,13.10
2023-02-05T19:54:43.117Z,12.32
2023-02-05T19:57:11.737Z,10.30
2023-02-05T19:59:41.393Z,11.48
2023-02-05T20:02:13.601Z,10.07
2023-02-05T20:04:42.669Z,10.95
2023-02-05T20:07:10.936Z,11.82
2023-02-05T20:09:39.453Z,11.27
2023-02-05T20:12:09.108Z,11.30
2023-02-05T20:14:37.492Z,11.68
2023-02-05T20:17:07.722Z,11.77
2023-02-05T20:19:36.129Z,11.35
2023-02-05T20:22:04.428Z,11.77
2023-02-05T20:24:33.128Z,12.32
2023-02-05T20:27:01.384Z,13.95
2023-02-05T20:29:47.189Z,12.60
2023-02-05T20:32:17.289Z,12.38
2023-02-05T20:34:49.982Z,11.15
2023-02-05T20:37:19.718Z,12.43
2023-02-05T20:39:48.295Z,11.75
2023-02-05T20:42:17.437Z,12.23
2023-02-05T20:44:45.793Z,12.30
2023-02-05T20:47:15.609Z,12.68
2023-02-05T20:49:45.365Z,12.52
2023-02-05T20:52:13.751Z,12.40
2023-02-05T20:54:42.073Z,12.13
2023-02-05T20:57:10.335Z,12.52
2023-02-05T20:59:38.642Z,12.95
2023-02-05T21:02:07.649Z,13.07
2023-02-05T21:04:37.114Z,13.45
2023-02-05T21:07:07.059Z,13.00
2023-02-05T21:09:35.417Z,12.63
2023-02-05T21:12:03.941Z,13.27
2023-02-05T21:14:32.505Z,13.63
2023-02-05T21:17:00.839Z,13.32
2023-02-05T21:19:29.029Z,14.00
2023-02-05T21:21:57.242Z,14.77
2023-02-05T21:24:26.876Z,13.35
2023-02-05T21:26:55.285Z,14.55
2023-02-05T21:29:23.465Z,13.43
2023-02-05T21:31:55.518Z,12.90
2023-02-05T21:34:26.240Z,13.98
2023-02-05T21:36:55.874Z,13.55
2023-02-05T21:39:26.423Z,14.00
2023-02-05T21:41:55.028Z,14.20
2023-02-05T21:44:24.663Z,13.30
2023-02-05T21:46:55.215Z,14.30
2023-02-05T21:49:23.656Z,13.18
2023-02-05T21:51:53.085Z,14.65
2023-02-05T21:54:25.382Z,13.30
2023-02-05T21:56:55.853Z,15.05
2023-02-05T21:59:24.148Z,14.45
2023-02-05T22:01:53.050Z,13.85
2023-02-05T22:04:21.640Z,13.65
2023-02-05T22:06:50.997Z,14.05
2023-02-05T22:09:19.189Z,14.48
2023-02-05T22:11:49.796Z,13.95
2023-02-05T22:14:19.400Z,13.77
2023-02-05T22:16:47.936Z,14.23
2023-02-05T22:19:16.170Z,14.00
2023-02-05T22:21:45.304Z,14.48
2023-02-05T22:24:15.408Z,14.75
2023-02-05T22:26:45.184Z,14.95
2023-02-05T22:29:16.368Z,14.15
2023-02-05T22:31:46.571Z,14.40
2023-02-05T22:34:14.898Z,14.25
2023-02-05T22:36:43.325Z,14.15
2023-02-05T22:39:11.802Z,14.90
2023-02-05T22:41:42.269Z,13.70
2023-02-05T22:44:12.150Z,14.45
2023-02-05T22:46:41.614Z,13.57
2023-02-05T22:49:15.096Z,15.00
2023-02-05T22:51:44.426Z,14.25
2023-02-05T22:54:15.069Z,15.15
2023-02-05T22:56:43.427Z,14.80
2023-02-05T22:59:11.701Z,14.93
2023-02-05T23:01:40.520Z,16.55
2023-02-05T23:04:10.764Z,15.25
2023-02-05T23:06:41.318Z,15.48
2023-02-05T23:09:12.046Z,15.20
2023-02-05T23:11:40.553Z,15.80
2023-02-05T23:14:10.277Z,14.95
2023-02-05T23:16:41.351Z,15.07
2023-02-05T23:19:13.720Z,15.93
2023-02-05T23:21:42.108Z,16.83
2023-02-05T23:24:11.011Z,16.17
2023-02-05T23:26:42.210Z,15.65
2023-02-05T23:29:11.369Z,15.23
2023-02-05T23:31:40.311Z,15.63
2023-02-05T23:34:09.123Z,16.98
2023-02-05T23:36:38.876Z,16.33
2023-02-05T23:39:07.262Z,16.67
2023-02-05T23:41:39.870Z,15.93
2023-02-05T23:44:11.722Z,15.63
2023-02-05T23:46:41.075Z,15.02
2023-02-05T23:49:10.086Z,14.73
2023-02-05T23:51:40.080Z,12.60
2023-02-05T23:54:09.536Z,12.82
2023-02-05T23:56:38.162Z,14.13
2023-02-05T23:59:06.668Z,12.93
